sensor_id;sensor_type;location;lat;lon;timestamp;temperature;humidity
9837;DHT22;4957;51.412;6.724;2023-11-18T00:01:24;5.30;99.90
9837;DHT22;4957;51.412;6.724;2023-11-18T00:03:50;5.30;99.90
9837;DHT22;4957;51.412;6.724;2023-11-18T00:06:16;5.30;99.90
9837;DHT22;4957;51.412;6.724;2023-11-18T00:08:42;5.30;99.90
9837;DHT22;4957;51.412;6.724;2023-11-18T00:11:08;5.30;99.90
9837;DHT22;4957;51.412;6.724;2023-11-18T00:13:36;5.30;99.90
9837;DHT22;4957;51.412;6.724;2023-11-18T00:16:05;5.30;99.90
9837;DHT22;4957;51.412;6.724;2023-11-18T00:18:31;5.40;99.90
9837;DHT22;4957;51.412;6.724;2023-11-18T00:20:58;5.30;99.90
9837;DHT22;4957;51.412;6.724;2023-11-18T00:23:23;5.40;99.90
9837;DHT22;4957;51.412;6.724;2023-11-18T00:25:49;5.40;99.90
9837;DHT22;4957;51.412;6.724;2023-11-18T00:28:15;5.30;99.90
9837;DHT22;4957;51.412;6.724;2023-11-18T00:30:41;5.30;99.90
9837;DHT22;4957;51.412;6.724;2023-11-18T00:33:06;5.40;99.90
9837;DHT22;4957;51.412;6.724;2023-11-18T00:35:32;5.40;99.90
9837;DHT22;4957;51.412;6.724;2023-11-18T00:37:59;5.30;99.90
9837;DHT22;4957;51.412;6.724;2023-11-18T00:40:25;5.30;99.90
9837;DHT22;4957;51.412;6.724;2023-11-18T00:42:51;5.40;99.90
9837;DHT22;4957;51.412;6.724;2023-11-18T00:45:17;5.40;99.90
9837;DHT22;4957;51.412;6.724;2023-11-18T00:47:43;5.30;99.90
9837;DHT22;4957;51.412;6.724;2023-11-18T00:50:09;5.30;99.90
9837;DHT22;4957;51.412;6.724;2023-11-18T00:52:36;5.40;99.90
9837;DHT22;4957;51.412;6.724;2023-11-18T00:55:07;5.30;99.90
9837;DHT22;4957;51.412;6.724;2023-11-18T00:57:37;5.30;99.90
9837;DHT22;4957;51.412;6.724;2023-11-18T01:00:07;5.40;99.90
9837;DHT22;4957;51.412;6.724;2023-11-18T01:02:34;5.40;99.90
9837;DHT22;4957;51.412;6.724;2023-11-18T01:05:00;5.40;99.90
9837;DHT22;4957;51.412;6.724;2023-11-18T01:07:25;5.40;99.90
9837;DHT22;4957;51.412;6.724;2023-11-18T01:09:51;5.40;99.90
9837;DHT22;4957;51.412;6.724;2023-11-18T01:12:16;5.40;99.90
9837;DHT22;4957;51.412;6.724;2023-11-18T01:14:42;5.40;99.90
9837;DHT22;4957;51.412;6.724;2023-11-18T01:17:08;5.50;99.90
9837;DHT22;4957;51.412;6.724;2023-11-18T01:19:36;5.50;99.90
9837;DHT22;4957;51.412;6.724;2023-11-18T01:24:30;5.50;99.90
9837;DHT22;4957;51.412;6.724;2023-11-18T01:26:55;5.50;99.90
9837;DHT22;4957;51.412;6.724;2023-11-18T01:29:21;5.60;99.90
9837;DHT22;4957;51.412;6.724;2023-11-18T01:31:48;5.60;99.90
9837;DHT22;4957;51.412;6.724;2023-11-18T01:34:13;5.60;99.90
9837;DHT22;4957;51.412;6.724;2023-11-18T01:36:39;5.60;99.90
9837;DHT22;4957;51.412;6.724;2023-11-18T01:39:05;5.60;99.90
9837;DHT22;4957;51.412;6.724;2023-11-18T01:41:32;5.60;99.90
9837;DHT22;4957;51.412;6.724;2023-11-18T01:43:58;5.60;99.90
9837;DHT22;4957;51.412;6.724;2023-11-18T01:46:25;5.60;99.90
9837;DHT22;4957;51.412;6.724;2023-11-18T01:48:52;5.60;99.90
9837;DHT22;4957;51.412;6.724;2023-11-18T01:51:18;5.60;99.90
9837;DHT22;4957;51.412;6.724;2023-11-18T01:53:47;5.60;99.90
9837;DHT22;4957;51.412;6.724;2023-11-18T01:56:14;5.60;99.90
9837;DHT22;4957;51.412;6.724;2023-11-18T01:58:40;5.60;99.90
9837;DHT22;4957;51.412;6.724;2023-11-18T02:01:06;5.60;99.90
9837;DHT22;4957;51.412;6.724;2023-11-18T02:03:34;5.60;99.90
9837;DHT22;4957;51.412;6.724;2023-11-18T02:06:01;5.60;99.90
9837;DHT22;4957;51.412;6.724;2023-11-18T02:08:27;5.60;99.90
9837;DHT22;4957;51.412;6.724;2023-11-18T02:10:55;5.60;99.90
9837;DHT22;4957;51.412;6.724;2023-11-18T02:13:29;5.50;99.90
9837;DHT22;4957;51.412;6.724;2023-11-18T02:15:57;5.50;99.90
9837;DHT22;4957;51.412;6.724;2023-11-18T02:18:27;5.50;99.90
9837;DHT22;4957;51.412;6.724;2023-11-18T02:20:57;5.50;99.90
9837;DHT22;4957;51.412;6.724;2023-11-18T02:23:24;5.50;99.90
9837;DHT22;4957;51.412;6.724;2023-11-18T02:25:52;5.50;99.90
9837;DHT22;4957;51.412;6.724;2023-11-18T02:28:18;5.50;99.90
9837;DHT22;4957;51.412;6.724;2023-11-18T02:30:45;5.50;99.90
9837;DHT22;4957;51.412;6.724;2023-11-18T02:33:39;5.50;99.90
9837;DHT22;4957;51.412;6.724;2023-11-18T02:36:13;5.50;99.90
9837;DHT22;4957;51.412;6.724;2023-11-18T02:38:44;5.50;99.90
9837;DHT22;4957;51.412;6.724;2023-11-18T02:41:13;5.50;99.90
9837;DHT22;4957;51.412;6.724;2023-11-18T02:43:40;5.50;99.90
9837;DHT22;4957;51.412;6.724;2023-11-18T02:46:07;5.50;99.90
9837;DHT22;4957;51.412;6.724;2023-11-18T02:48:34;5.50;99.90
9837;DHT22;4957;51.412;6.724;2023-11-18T02:51:01;5.50;99.90
9837;DHT22;4957;51.412;6.724;2023-11-18T02:53:27;5.50;99.90
9837;DHT22;4957;51.412;6.724;2023-11-18T02:55:53;5.50;99.90
9837;DHT22;4957;51.412;6.724;2023-11-18T02:58:19;5.60;99.90
9837;DHT22;4957;51.412;6.724;2023-11-18T03:00:45;5.60;99.90
9837;DHT22;4957;51.412;6.724;2023-11-18T03:03:11;5.60;99.90
9837;DHT22;4957;51.412;6.724;2023-11-18T03:05:37;5.60;99.90
9837;DHT22;4957;51.412;6.724;2023-11-18T03:08:04;5.60;99.90
9837;DHT22;4957;51.412;6.724;2023-11-18T03:10:32;5.60;99.90
9837;DHT22;4957;51.412;6.724;2023-11-18T03:13:01;5.60;99.90
9837;DHT22;4957;51.412;6.724;2023-11-18T03:15:27;5.60;99.90
9837;DHT22;4957;51.412;6.724;2023-11-18T03:17:54;5.60;99.90
9837;DHT22;4957;51.412;6.724;2023-11-18T03:20:21;5.60;99.90
9837;DHT22;4957;51.412;6.724;2023-11-18T03:22:50;5.60;99.90
9837;DHT22;4957;51.412;6.724;2023-11-18T03:25:17;5.60;99.90
9837;DHT22;4957;51.412;6.724;2023-11-18T03:27:44;5.70;99.90
9837;DHT22;4957;51.412;6.724;2023-11-18T03:30:10;5.70;99.90
9837;DHT22;4957;51.412;6.724;2023-11-18T03:32:37;5.70;99.90
9837;DHT22;4957;51.412;6.724;2023-11-18T03:35:04;5.70;99.90
9837;DHT22;4957;51.412;6.724;2023-11-18T03:37:35;5.70;99.90
9837;DHT22;4957;51.412;6.724;2023-11-18T03:40:01;5.70;99.90
9837;DHT22;4957;51.412;6.724;2023-11-18T03:42:27;5.70;99.90
9837;DHT22;4957;51.412;6.724;2023-11-18T03:44:53;5.70;99.90
9837;DHT22;4957;51.412;6.724;2023-11-18T03:47:18;5.70;99.90
9837;DHT22;4957;51.412;6.724;2023-11-18T03:49:44;5.70;99.90
9837;DHT22;4957;51.412;6.724;2023-11-18T03:52:10;5.70;99.90
9837;DHT22;4957;51.412;6.724;2023-11-18T03:54:35;5.70;99.90
9837;DHT22;4957;51.412;6.724;2023-11-18T03:57:01;5.70;99.90
9837;DHT22;4957;51.412;6.724;2023-11-18T03:59:26;5.70;99.90
9837;DHT22;4957;51.412;6.724;2023-11-18T04:01:52;5.70;99.90
9837;DHT22;4957;51.412;6.724;2023-11-18T04:04:18;5.70;99.90
9837;DHT22;4957;51.412;6.724;2023-11-18T04:06:44;5.70;99.90
9837;DHT22;4957;51.412;6.724;2023-11-18T04:09:12;5.70;99.90
9837;DHT22;4957;51.412;6.724;2023-11-18T04:11:38;5.70;99.90
9837;DHT22;4957;51.412;6.724;2023-11-18T04:14:05;5.70;99.90
9837;DHT22;4957;51.412;6.724;2023-11-18T04:16:31;5.80;99.90
9837;DHT22;4957;51.412;6.724;2023-11-18T04:18:56;5.80;99.90
9837;DHT22;4957;51.412;6.724;2023-11-18T04:21:22;5.80;99.90
9837;DHT22;4957;51.412;6.724;2023-11-18T04:23:48;5.80;99.90
9837;DHT22;4957;51.412;6.724;2023-11-18T04:26:14;5.80;99.90
9837;DHT22;4957;51.412;6.724;2023-11-18T04:28:39;5.80;99.90
9837;DHT22;4957;51.412;6.724;2023-11-18T04:31:05;5.80;99.90
9837;DHT22;4957;51.412;6.724;2023-11-18T04:33:31;5.80;99.90
9837;DHT22;4957;51.412;6.724;2023-11-18T04:35:57;5.80;99.90
9837;DHT22;4957;51.412;6.724;2023-11-18T04:38:23;5.80;99.90
9837;DHT22;4957;51.412;6.724;2023-11-18T04:40:49;5.80;99.90
9837;DHT22;4957;51.412;6.724;2023-11-18T04:43:16;5.80;99.90
9837;DHT22;4957;51.412;6.724;2023-11-18T04:45:44;5.70;99.90
9837;DHT22;4957;51.412;6.724;2023-11-18T04:48:10;5.70;99.90
9837;DHT22;4957;51.412;6.724;2023-11-18T04:50:36;5.70;99.90
9837;DHT22;4957;51.412;6.724;2023-11-18T04:53:01;5.70;99.90
9837;DHT22;4957;51.412;6.724;2023-11-18T04:55:36;5.70;99.90
9837;DHT22;4957;51.412;6.724;2023-11-18T04:58:02;5.70;99.90
9837;DHT22;4957;51.412;6.724;2023-11-18T05:00:28;5.70;99.90
9837;DHT22;4957;51.412;6.724;2023-11-18T05:02:54;5.70;99.90
9837;DHT22;4957;51.412;6.724;2023-11-18T05:05:20;5.70;99.90
9837;DHT22;4957;51.412;6.724;2023-11-18T05:07:47;5.70;99.90
9837;DHT22;4957;51.412;6.724;2023-11-18T05:10:13;5.70;99.90
9837;DHT22;4957;51.412;6.724;2023-11-18T05:12:39;5.70;99.90
9837;DHT22;4957;51.412;6.724;2023-11-18T05:15:18;5.70;99.90
9837;DHT22;4957;51.412;6.724;2023-11-18T05:17:44;5.70;99.90
9837;DHT22;4957;51.412;6.724;2023-11-18T05:20:10;5.70;99.90
9837;DHT22;4957;51.412;6.724;2023-11-18T05:22:36;5.70;99.90
9837;DHT22;4957;51.412;6.724;2023-11-18T05:25:03;5.70;99.90
9837;DHT22;4957;51.412;6.724;2023-11-18T05:27:31;5.70;99.90
9837;DHT22;4957;51.412;6.724;2023-11-18T05:29:57;5.70;99.90
9837;DHT22;4957;51.412;6.724;2023-11-18T05:32:28;5.70;99.90
9837;DHT22;4957;51.412;6.724;2023-11-18T05:34:54;5.70;99.90
9837;DHT22;4957;51.412;6.724;2023-11-18T05:37:21;5.70;99.90
9837;DHT22;4957;51.412;6.724;2023-11-18T05:39:47;5.70;99.90
9837;DHT22;4957;51.412;6.724;2023-11-18T05:42:14;5.70;99.90
9837;DHT22;4957;51.412;6.724;2023-11-18T05:44:41;5.70;99.90
9837;DHT22;4957;51.412;6.724;2023-11-18T05:47:08;5.70;99.90
9837;DHT22;4957;51.412;6.724;2023-11-18T05:49:37;5.70;99.90
9837;DHT22;4957;51.412;6.724;2023-11-18T05:52:04;5.80;99.90
9837;DHT22;4957;51.412;6.724;2023-11-18T05:54:30;5.80;99.90
9837;DHT22;4957;51.412;6.724;2023-11-18T05:56:56;5.80;99.90
9837;DHT22;4957;51.412;6.724;2023-11-18T05:59:22;5.80;99.90
9837;DHT22;4957;51.412;6.724;2023-11-18T06:01:49;5.80;99.90
9837;DHT22;4957;51.412;6.724;2023-11-18T06:04:15;5.80;99.90
9837;DHT22;4957;51.412;6.724;2023-11-18T06:06:41;5.80;99.90
9837;DHT22;4957;51.412;6.724;2023-11-18T06:09:07;5.80;99.90
9837;DHT22;4957;51.412;6.724;2023-11-18T06:11:43;5.80;99.90
9837;DHT22;4957;51.412;6.724;2023-11-18T06:14:10;5.90;99.90
9837;DHT22;4957;51.412;6.724;2023-11-18T06:16:38;5.90;99.90
9837;DHT22;4957;51.412;6.724;2023-11-18T06:19:05;5.90;99.90
9837;DHT22;4957;51.412;6.724;2023-11-18T06:21:31;5.90;99.90
9837;DHT22;4957;51.412;6.724;2023-11-18T06:23:58;5.90;99.90
9837;DHT22;4957;51.412;6.724;2023-11-18T06:26:24;5.90;99.90
9837;DHT22;4957;51.412;6.724;2023-11-18T06:28:52;5.90;99.90
9837;DHT22;4957;51.412;6.724;2023-11-18T06:31:19;5.90;99.90
9837;DHT22;4957;51.412;6.724;2023-11-18T06:33:46;5.90;99.90
9837;DHT22;4957;51.412;6.724;2023-11-18T06:38:48;5.90;99.90
9837;DHT22;4957;51.412;6.724;2023-11-18T06:41:20;6.00;99.90
9837;DHT22;4957;51.412;6.724;2023-11-18T06:43:49;5.90;99.90
9837;DHT22;4957;51.412;6.724;2023-11-18T06:48:51;6.00;99.90
9837;DHT22;4957;51.412;6.724;2023-11-18T06:51:20;6.00;99.90
9837;DHT22;4957;51.412;6.724;2023-11-18T06:53:50;6.00;99.90
9837;DHT22;4957;51.412;6.724;2023-11-18T06:56:16;6.00;99.90
9837;DHT22;4957;51.412;6.724;2023-11-18T06:58:42;6.00;99.90
9837;DHT22;4957;51.412;6.724;2023-11-18T07:01:09;6.00;99.90
9837;DHT22;4957;51.412;6.724;2023-11-18T07:03:35;6.00;99.90
9837;DHT22;4957;51.412;6.724;2023-11-18T07:06:04;6.00;99.90
9837;DHT22;4957;51.412;6.724;2023-11-18T07:08:32;6.00;99.90
9837;DHT22;4957;51.412;6.724;2023-11-18T07:11:00;6.00;99.90
9837;DHT22;4957;51.412;6.724;2023-11-18T07:13:27;6.00;99.90
9837;DHT22;4957;51.412;6.724;2023-11-18T07:15:53;6.00;99.90
9837;DHT22;4957;51.412;6.724;2023-11-18T07:18:25;6.10;99.90
9837;DHT22;4957;51.412;6.724;2023-11-18T07:20:51;6.10;99.90
9837;DHT22;4957;51.412;6.724;2023-11-18T07:23:20;6.00;99.90
9837;DHT22;4957;51.412;6.724;2023-11-18T07:25:46;6.10;99.90
9837;DHT22;4957;51.412;6.724;2023-11-18T07:28:12;6.10;99.90
9837;DHT22;4957;51.412;6.724;2023-11-18T07:30:43;6.10;99.90
9837;DHT22;4957;51.412;6.724;2023-11-18T07:33:19;6.10;99.90
9837;DHT22;4957;51.412;6.724;2023-11-18T07:35:45;6.10;99.90
9837;DHT22;4957;51.412;6.724;2023-11-18T07:38:17;6.10;99.90
9837;DHT22;4957;51.412;6.724;2023-11-18T07:40:45;6.10;99.90
9837;DHT22;4957;51.412;6.724;2023-11-18T07:43:12;6.20;99.90
9837;DHT22;4957;51.412;6.724;2023-11-18T07:45:38;6.20;99.90
9837;DHT22;4957;51.412;6.724;2023-11-18T07:50:36;6.20;99.90
9837;DHT22;4957;51.412;6.724;2023-11-18T07:53:02;6.20;99.90
9837;DHT22;4957;51.412;6.724;2023-11-18T07:55:29;6.30;99.90
9837;DHT22;4957;51.412;6.724;2023-11-18T07:57:55;6.30;99.90
9837;DHT22;4957;51.412;6.724;2023-11-18T08:00:21;6.30;99.90
9837;DHT22;4957;51.412;6.724;2023-11-18T08:02:49;6.30;99.90
9837;DHT22;4957;51.412;6.724;2023-11-18T08:05:15;6.30;99.90
9837;DHT22;4957;51.412;6.724;2023-11-18T08:07:43;6.30;99.90
9837;DHT22;4957;51.412;6.724;2023-11-18T08:10:10;6.30;99.90
9837;DHT22;4957;51.412;6.724;2023-11-18T08:12:39;6.40;99.90
9837;DHT22;4957;51.412;6.724;2023-11-18T08:15:08;6.40;99.90
9837;DHT22;4957;51.412;6.724;2023-11-18T08:17:35;6.40;99.90
9837;DHT22;4957;51.412;6.724;2023-11-18T08:20:00;6.40;99.90
9837;DHT22;4957;51.412;6.724;2023-11-18T08:22:26;6.40;99.90
9837;DHT22;4957;51.412;6.724;2023-11-18T08:24:52;6.50;99.90
9837;DHT22;4957;51.412;6.724;2023-11-18T08:27:18;6.50;99.90
9837;DHT22;4957;51.412;6.724;2023-11-18T08:29:44;6.50;99.90
9837;DHT22;4957;51.412;6.724;2023-11-18T08:32:11;6.50;99.90
9837;DHT22;4957;51.412;6.724;2023-11-18T08:34:37;6.60;99.90
9837;DHT22;4957;51.412;6.724;2023-11-18T08:37:06;6.50;99.90
9837;DHT22;4957;51.412;6.724;2023-11-18T08:39:32;6.60;99.90
9837;DHT22;4957;51.412;6.724;2023-11-18T08:41:58;6.60;99.90
9837;DHT22;4957;51.412;6.724;2023-11-18T08:44:24;6.70;99.90
9837;DHT22;4957;51.412;6.724;2023-11-18T08:46:51;6.70;99.90
9837;DHT22;4957;51.412;6.724;2023-11-18T08:49:18;6.70;99.90
9837;DHT22;4957;51.412;6.724;2023-11-18T08:51:48;6.70;99.90
9837;DHT22;4957;51.412;6.724;2023-11-18T08:54:15;6.80;99.90
9837;DHT22;4957;51.412;6.724;2023-11-18T08:57:03;6.80;99.90
9837;DHT22;4957;51.412;6.724;2023-11-18T08:59:29;6.80;99.90
9837;DHT22;4957;51.412;6.724;2023-11-18T09:01:56;6.80;99.90
9837;DHT22;4957;51.412;6.724;2023-11-18T09:04:25;6.80;99.90
9837;DHT22;4957;51.412;6.724;2023-11-18T09:06:54;6.80;99.90
9837;DHT22;4957;51.412;6.724;2023-11-18T09:09:23;6.90;99.90
9837;DHT22;4957;51.412;6.724;2023-11-18T09:11:56;6.90;99.90
9837;DHT22;4957;51.412;6.724;2023-11-18T09:14:24;6.90;99.90
9837;DHT22;4957;51.412;6.724;2023-11-18T09:16:51;6.90;99.90
9837;DHT22;4957;51.412;6.724;2023-11-18T09:19:17;6.90;99.90
9837;DHT22;4957;51.412;6.724;2023-11-18T09:21:43;6.90;99.90
9837;DHT22;4957;51.412;6.724;2023-11-18T09:24:10;6.90;99.90
9837;DHT22;4957;51.412;6.724;2023-11-18T09:26:38;7.00;99.90
9837;DHT22;4957;51.412;6.724;2023-11-18T09:29:09;6.90;99.90
9837;DHT22;4957;51.412;6.724;2023-11-18T09:31:36;7.00;99.90
9837;DHT22;4957;51.412;6.724;2023-11-18T09:34:03;7.00;99.90
9837;DHT22;4957;51.412;6.724;2023-11-18T09:36:32;7.00;99.90
9837;DHT22;4957;51.412;6.724;2023-11-18T09:38:59;7.00;99.90
9837;DHT22;4957;51.412;6.724;2023-11-18T09:41:25;7.00;99.90
9837;DHT22;4957;51.412;6.724;2023-11-18T09:43:53;7.10;99.90
9837;DHT22;4957;51.412;6.724;2023-11-18T09:46:29;7.10;99.90
9837;DHT22;4957;51.412;6.724;2023-11-18T09:49:21;7.10;99.90
9837;DHT22;4957;51.412;6.724;2023-11-18T09:51:57;7.10;99.90
9837;DHT22;4957;51.412;6.724;2023-11-18T09:57:10;7.20;99.90
9837;DHT22;4957;51.412;6.724;2023-11-18T10:00:04;7.20;99.90
9837;DHT22;4957;51.412;6.724;2023-11-18T10:02:47;7.20;99.90
9837;DHT22;4957;51.412;6.724;2023-11-18T10:05:16;7.20;99.90
9837;DHT22;4957;51.412;6.724;2023-11-18T10:07:46;7.20;99.90
9837;DHT22;4957;51.412;6.724;2023-11-18T10:10:13;7.30;99.90
9837;DHT22;4957;51.412;6.724;2023-11-18T10:12:45;7.30;99.90
9837;DHT22;4957;51.412;6.724;2023-11-18T10:15:14;7.30;99.90
9837;DHT22;4957;51.412;6.724;2023-11-18T10:17:45;7.40;99.90
9837;DHT22;4957;51.412;6.724;2023-11-18T10:20:49;7.40;99.90
9837;DHT22;4957;51.412;6.724;2023-11-18T10:23:19;7.40;99.90
9837;DHT22;4957;51.412;6.724;2023-11-18T10:25:49;7.50;99.90
9837;DHT22;4957;51.412;6.724;2023-11-18T10:28:35;7.50;99.90
9837;DHT22;4957;51.412;6.724;2023-11-18T10:31:06;7.50;99.90
9837;DHT22;4957;51.412;6.724;2023-11-18T10:33:37;7.60;99.90
9837;DHT22;4957;51.412;6.724;2023-11-18T10:36:05;7.60;99.90
9837;DHT22;4957;51.412;6.724;2023-11-18T10:38:38;7.60;99.90
9837;DHT22;4957;51.412;6.724;2023-11-18T10:41:09;7.70;99.90
9837;DHT22;4957;51.412;6.724;2023-11-18T10:43:35;7.70;99.90
9837;DHT22;4957;51.412;6.724;2023-11-18T10:46:12;7.70;99.90
9837;DHT22;4957;51.412;6.724;2023-11-18T10:48:45;7.80;99.90
9837;DHT22;4957;51.412;6.724;2023-11-18T10:51:17;7.70;99.90
9837;DHT22;4957;51.412;6.724;2023-11-18T10:53:47;7.80;99.90
9837;DHT22;4957;51.412;6.724;2023-11-18T10:56:24;7.80;99.90
9837;DHT22;4957;51.412;6.724;2023-11-18T10:59:06;7.80;99.90
9837;DHT22;4957;51.412;6.724;2023-11-18T11:01:33;7.90;99.90
9837;DHT22;4957;51.412;6.724;2023-11-18T11:03:59;7.90;99.90
9837;DHT22;4957;51.412;6.724;2023-11-18T11:06:30;7.90;99.90
9837;DHT22;4957;51.412;6.724;2023-11-18T11:08:57;7.90;99.90
9837;DHT22;4957;51.412;6.724;2023-11-18T11:11:39;7.90;99.90
9837;DHT22;4957;51.412;6.724;2023-11-18T11:14:06;8.00;99.90
9837;DHT22;4957;51.412;6.724;2023-11-18T11:16:54;8.00;99.90
9837;DHT22;4957;51.412;6.724;2023-11-18T11:19:26;8.00;99.90
9837;DHT22;4957;51.412;6.724;2023-11-18T11:22:04;8.00;99.90
9837;DHT22;4957;51.412;6.724;2023-11-18T11:33:42;8.10;99.90
9837;DHT22;4957;51.412;6.724;2023-11-18T11:36:15;8.10;99.90
9837;DHT22;4957;51.412;6.724;2023-11-18T11:38:43;8.10;99.90
9837;DHT22;4957;51.412;6.724;2023-11-18T11:41:13;8.10;99.90
9837;DHT22;4957;51.412;6.724;2023-11-18T11:43:52;8.10;99.90
9837;DHT22;4957;51.412;6.724;2023-11-18T11:46:22;8.20;99.90
9837;DHT22;4957;51.412;6.724;2023-11-18T11:48:52;8.20;99.90
9837;DHT22;4957;51.412;6.724;2023-11-18T11:51:44;8.20;99.90
9837;DHT22;4957;51.412;6.724;2023-11-18T11:54:20;8.20;99.90
9837;DHT22;4957;51.412;6.724;2023-11-18T11:56:49;8.20;99.90
9837;DHT22;4957;51.412;6.724;2023-11-18T12:02:25;8.30;99.90
9837;DHT22;4957;51.412;6.724;2023-11-18T12:04:58;8.30;99.90
9837;DHT22;4957;51.412;6.724;2023-11-18T12:07:27;8.30;99.90
9837;DHT22;4957;51.412;6.724;2023-11-18T12:09:57;8.30;99.90
9837;DHT22;4957;51.412;6.724;2023-11-18T12:12:25;8.30;99.90
9837;DHT22;4957;51.412;6.724;2023-11-18T12:14:54;8.40;99.90
9837;DHT22;4957;51.412;6.724;2023-11-18T12:17:26;8.40;99.90
9837;DHT22;4957;51.412;6.724;2023-11-18T12:19:57;8.40;99.90
9837;DHT22;4957;51.412;6.724;2023-11-18T12:23:04;8.40;99.90
9837;DHT22;4957;51.412;6.724;2023-11-18T12:25:40;8.40;99.90
9837;DHT22;4957;51.412;6.724;2023-11-18T12:28:15;8.40;99.90
9837;DHT22;4957;51.412;6.724;2023-11-18T12:30:43;8.40;99.90
9837;DHT22;4957;51.412;6.724;2023-11-18T12:33:20;8.40;99.90
9837;DHT22;4957;51.412;6.724;2023-11-18T12:41:34;8.50;99.90
9837;DHT22;4957;51.412;6.724;2023-11-18T12:46:52;8.50;99.90
9837;DHT22;4957;51.412;6.724;2023-11-18T12:49:19;8.50;99.90
9837;DHT22;4957;51.412;6.724;2023-11-18T12:51:53;8.50;99.90
9837;DHT22;4957;51.412;6.724;2023-11-18T12:54:21;8.50;99.90
9837;DHT22;4957;51.412;6.724;2023-11-18T12:56:47;8.50;99.90
9837;DHT22;4957;51.412;6.724;2023-11-18T12:59:19;8.50;99.90
9837;DHT22;4957;51.412;6.724;2023-11-18T13:01:50;8.50;99.90
9837;DHT22;4957;51.412;6.724;2023-11-18T13:04:30;8.50;99.90
9837;DHT22;4957;51.412;6.724;2023-11-18T13:06:57;8.50;99.90
9837;DHT22;4957;51.412;6.724;2023-11-18T13:09:23;8.50;99.90
9837;DHT22;4957;51.412;6.724;2023-11-18T13:11:59;8.60;99.90
9837;DHT22;4957;51.412;6.724;2023-11-18T13:14:31;8.60;99.90
9837;DHT22;4957;51.412;6.724;2023-11-18T13:17:05;8.60;99.90
9837;DHT22;4957;51.412;6.724;2023-11-18T13:19:34;8.60;99.90
9837;DHT22;4957;51.412;6.724;2023-11-18T13:22:01;8.60;99.90
9837;DHT22;4957;51.412;6.724;2023-11-18T13:24:32;8.60;99.90
9837;DHT22;4957;51.412;6.724;2023-11-18T13:26:58;8.60;99.90
9837;DHT22;4957;51.412;6.724;2023-11-18T13:29:29;8.60;99.90
9837;DHT22;4957;51.412;6.724;2023-11-18T13:31:55;8.70;99.90
9837;DHT22;4957;51.412;6.724;2023-11-18T13:34:23;8.70;99.90
9837;DHT22;4957;51.412;6.724;2023-11-18T13:36:49;8.70;99.90
9837;DHT22;4957;51.412;6.724;2023-11-18T13:39:19;8.70;99.90
9837;DHT22;4957;51.412;6.724;2023-11-18T13:41:48;8.70;99.90
9837;DHT22;4957;51.412;6.724;2023-11-18T13:44:35;8.70;99.90
9837;DHT22;4957;51.412;6.724;2023-11-18T13:47:02;8.70;99.90
9837;DHT22;4957;51.412;6.724;2023-11-18T13:49:31;8.80;99.90
9837;DHT22;4957;51.412;6.724;2023-11-18T13:51:57;8.70;99.90
9837;DHT22;4957;51.412;6.724;2023-11-18T13:54:24;8.80;99.90
9837;DHT22;4957;51.412;6.724;2023-11-18T13:56:51;8.80;99.90
9837;DHT22;4957;51.412;6.724;2023-11-18T13:59:18;8.80;99.90
9837;DHT22;4957;51.412;6.724;2023-11-18T14:01:45;8.80;99.90
9837;DHT22;4957;51.412;6.724;2023-11-18T14:04:11;8.80;99.90
9837;DHT22;4957;51.412;6.724;2023-11-18T14:06:37;8.80;99.90
9837;DHT22;4957;51.412;6.724;2023-11-18T14:09:05;8.80;99.90
9837;DHT22;4957;51.412;6.724;2023-11-18T14:11:31;8.80;99.90
9837;DHT22;4957;51.412;6.724;2023-11-18T14:13:56;8.80;99.90
9837;DHT22;4957;51.412;6.724;2023-11-18T14:16:24;8.80;99.90
9837;DHT22;4957;51.412;6.724;2023-11-18T14:18:51;8.80;99.90
9837;DHT22;4957;51.412;6.724;2023-11-18T14:21:17;8.80;99.90
9837;DHT22;4957;51.412;6.724;2023-11-18T14:23:43;8.80;99.90
9837;DHT22;4957;51.412;6.724;2023-11-18T14:26:10;8.80;99.90
9837;DHT22;4957;51.412;6.724;2023-11-18T14:28:37;8.80;99.90
9837;DHT22;4957;51.412;6.724;2023-11-18T14:31:03;8.80;99.90
9837;DHT22;4957;51.412;6.724;2023-11-18T14:33:33;8.80;99.90
9837;DHT22;4957;51.412;6.724;2023-11-18T14:36:01;8.80;99.90
9837;DHT22;4957;51.412;6.724;2023-11-18T14:38:30;8.80;99.90
9837;DHT22;4957;51.412;6.724;2023-11-18T14:40:56;8.80;99.90
9837;DHT22;4957;51.412;6.724;2023-11-18T14:43:21;8.80;99.90
9837;DHT22;4957;51.412;6.724;2023-11-18T14:45:47;8.80;99.90
9837;DHT22;4957;51.412;6.724;2023-11-18T14:48:14;8.90;99.90
9837;DHT22;4957;51.412;6.724;2023-11-18T14:50:40;8.80;99.90
9837;DHT22;4957;51.412;6.724;2023-11-18T14:53:05;8.80;99.90
9837;DHT22;4957;51.412;6.724;2023-11-18T14:55:31;8.80;99.90
9837;DHT22;4957;51.412;6.724;2023-11-18T14:58:00;8.80;99.90
9837;DHT22;4957;51.412;6.724;2023-11-18T15:00:26;8.80;99.90
9837;DHT22;4957;51.412;6.724;2023-11-18T15:02:54;8.80;99.90
9837;DHT22;4957;51.412;6.724;2023-11-18T15:05:21;8.80;99.90
9837;DHT22;4957;51.412;6.724;2023-11-18T15:07:48;8.80;99.90
9837;DHT22;4957;51.412;6.724;2023-11-18T15:10:19;8.80;99.90
9837;DHT22;4957;51.412;6.724;2023-11-18T15:12:49;8.80;99.90
9837;DHT22;4957;51.412;6.724;2023-11-18T15:15:22;8.80;99.90
9837;DHT22;4957;51.412;6.724;2023-11-18T15:17:48;8.80;99.90
9837;DHT22;4957;51.412;6.724;2023-11-18T15:20:15;8.80;99.90
9837;DHT22;4957;51.412;6.724;2023-11-18T15:22:42;8.80;99.90
9837;DHT22;4957;51.412;6.724;2023-11-18T15:25:08;8.80;99.90
9837;DHT22;4957;51.412;6.724;2023-11-18T15:27:36;8.70;99.90
9837;DHT22;4957;51.412;6.724;2023-11-18T15:30:02;8.70;99.90
9837;DHT22;4957;51.412;6.724;2023-11-18T15:32:27;8.70;99.90
9837;DHT22;4957;51.412;6.724;2023-11-18T15:34:53;8.70;99.90
9837;DHT22;4957;51.412;6.724;2023-11-18T15:37:19;8.70;99.90
9837;DHT22;4957;51.412;6.724;2023-11-18T15:39:45;8.70;99.90
9837;DHT22;4957;51.412;6.724;2023-11-18T15:42:10;8.70;99.90
9837;DHT22;4957;51.412;6.724;2023-11-18T15:44:39;8.70;99.90
9837;DHT22;4957;51.412;6.724;2023-11-18T15:47:05;8.70;99.90
9837;DHT22;4957;51.412;6.724;2023-11-18T15:49:31;8.70;99.90
9837;DHT22;4957;51.412;6.724;2023-11-18T15:52:09;8.70;99.90
9837;DHT22;4957;51.412;6.724;2023-11-18T15:54:37;8.70;99.90
9837;DHT22;4957;51.412;6.724;2023-11-18T15:57:03;8.70;99.90
9837;DHT22;4957;51.412;6.724;2023-11-18T15:59:29;8.60;99.90
9837;DHT22;4957;51.412;6.724;2023-11-18T16:01:58;8.60;99.90
9837;DHT22;4957;51.412;6.724;2023-11-18T16:04:23;8.60;99.90
9837;DHT22;4957;51.412;6.724;2023-11-18T16:06:49;8.60;99.90
9837;DHT22;4957;51.412;6.724;2023-11-18T16:09:15;8.60;99.90
9837;DHT22;4957;51.412;6.724;2023-11-18T16:11:41;8.60;99.90
9837;DHT22;4957;51.412;6.724;2023-11-18T16:14:10;8.60;99.90
9837;DHT22;4957;51.412;6.724;2023-11-18T16:16:37;8.60;99.90
9837;DHT22;4957;51.412;6.724;2023-11-18T16:19:03;8.60;99.90
9837;DHT22;4957;51.412;6.724;2023-11-18T16:21:29;8.60;99.90
9837;DHT22;4957;51.412;6.724;2023-11-18T16:23:57;8.60;99.90
9837;DHT22;4957;51.412;6.724;2023-11-18T16:26:29;8.60;99.90
9837;DHT22;4957;51.412;6.724;2023-11-18T16:28:54;8.60;99.90
9837;DHT22;4957;51.412;6.724;2023-11-18T16:31:23;8.60;99.90
9837;DHT22;4957;51.412;6.724;2023-11-18T16:33:50;8.60;99.90
9837;DHT22;4957;51.412;6.724;2023-11-18T16:36:21;8.60;99.90
9837;DHT22;4957;51.412;6.724;2023-11-18T16:38:54;8.60;99.90
9837;DHT22;4957;51.412;6.724;2023-11-18T16:41:24;8.70;99.90
9837;DHT22;4957;51.412;6.724;2023-11-18T16:43:50;8.60;99.90
9837;DHT22;4957;51.412;6.724;2023-11-18T16:46:29;8.60;99.90
9837;DHT22;4957;51.412;6.724;2023-11-18T16:48:55;8.70;99.90
9837;DHT22;4957;51.412;6.724;2023-11-18T16:51:20;8.70;99.90
9837;DHT22;4957;51.412;6.724;2023-11-18T16:53:46;8.70;99.90
9837;DHT22;4957;51.412;6.724;2023-11-18T16:56:26;8.70;99.90
9837;DHT22;4957;51.412;6.724;2023-11-18T16:59:30;8.70;99.90